createdAt,value
2017-10-29T00:01:16.380Z,57.30
2017-10-29T00:03:43.972Z,57.50
2017-10-29T00:06:11.592Z,57.70
2017-10-29T00:08:39.172Z,57.60
2017-10-29T00:11:06.789Z,57.40
2017-10-29T00:13:35.168Z,57.80
2017-10-29T00:16:03.550Z,57.90
2017-10-29T00:18:31.934Z,58.00
2017-10-29T00:21:00.333Z,58.10
2017-10-29T00:23:27.928Z,58.10
2017-10-29T00:25:55.533Z,58.30
2017-10-29T00:28:23.883Z,58.70
2017-10-29T00:30:51.495Z,58.60
2017-10-29T00:33:19.088Z,58.90
2017-10-29T00:35:46.704Z,59.00
2017-10-29T00:38:14.303Z,59.20
2017-10-29T00:40:41.924Z,58.90
2017-10-29T00:43:09.522Z,59.00
2017-10-29T00:45:37.132Z,59.00
2017-10-29T00:48:05.488Z,58.30
2017-10-29T00:50:33.096Z,58.30
2017-10-29T00:53:00.683Z,57.90
2017-10-29T00:55:28.288Z,58.00
2017-10-29T00:57:56.656Z,58.00
2017-10-29T01:00:25.085Z,58.60
2017-10-29T01:02:52.723Z,58.10
2017-10-29T01:05:20.318Z,58.10
2017-10-29T01:07:47.921Z,58.10
2017-10-29T01:10:16.271Z,58.20
2017-10-29T01:12:43.885Z,58.20
2017-10-29T01:15:11.503Z,58.10
2017-10-29T01:17:39.123Z,58.20
2017-10-29T01:20:06.717Z,58.30
2017-10-29T01:22:34.324Z,58.30
2017-10-29T01:25:01.914Z,58.30
2017-10-29T01:27:29.543Z,58.20
2017-10-29T01:29:57.136Z,58.00
2017-10-29T01:32:24.732Z,58.10
2017-10-29T01:34:52.320Z,58.30
2017-10-29T01:37:20.708Z,58.40
2017-10-29T01:39:48.288Z,58.40
2017-10-29T01:42:15.890Z,58.50
